createdAt,value
2022-11-24T00:02:51.241Z,8.26
2022-11-24T00:06:53.610Z,8.29
2022-11-24T00:10:55.203Z,8.26
2022-11-24T00:14:56.775Z,8.26
2022-11-24T00:19:00.157Z,8.30
2022-11-24T00:23:01.720Z,8.34
2022-11-24T00:27:03.372Z,8.36
2022-11-24T00:31:16.991Z,8.44
2022-11-24T00:35:19.130Z,8.53
2022-11-24T00:39:20.718Z,8.57
2022-11-24T00:43:22.263Z,8.57
2022-11-24T00:47:23.941Z,8.57
2022-11-24T00:51:28.026Z,8.58
2022-11-24T00:55:29.661Z,8.62
2022-11-24T00:59:32.652Z,8.67
2022-11-24T01:03:34.205Z,8.71
2022-11-24T01:07:35.947Z,8.72
2022-11-24T01:11:56.536Z,8.77
2022-11-24T01:15:58.104Z,8.81
2022-11-24T01:19:59.715Z,8.84
2022-11-24T01:24:01.431Z,8.83
2022-11-24T01:28:03.017Z,8.82
2022-11-24T01:32:04.899Z,8.78
2022-11-24T01:36:06.921Z,8.75
2022-11-24T01:40:09.225Z,8.73
2022-11-24T01:44:21.429Z,8.66
2022-11-24T01:48:41.239Z,8.61
2022-11-24T01:52:47.684Z,8.53
2022-11-24T01:56:53.944Z,8.50
2022-11-24T02:00:56.077Z,8.55
2022-11-24T02:05:04.001Z,8.60
2022-11-24T02:09:17.316Z,8.61
2022-11-24T02:13:19.615Z,8.63
2022-11-24T02:17:22.054Z,8.63
2022-11-24T02:21:23.933Z,8.60
2022-11-24T02:25:35.881Z,8.56
2022-11-24T02:29:38.157Z,8.51
2022-11-24T02:33:39.973Z,8.48
2022-11-24T02:37:41.534Z,8.43
2022-11-24T02:42:04.931Z,8.39
2022-11-24T02:46:07.019Z,8.33
2022-11-24T02:50:08.845Z,8.31
2022-11-24T02:54:10.399Z,8.30
2022-11-24T02:58:12.289Z,8.27
2022-11-24T03:02:13.859Z,8.24
2022-11-24T03:06:15.499Z,8.23
2022-11-24T03:10:17.305Z,8.29
2022-11-24T03:14:18.858Z,8.38
2022-11-24T03:18:20.486Z,8.43
2022-11-24T03:22:22.382Z,8.43
2022-11-24T03:26:25.925Z,8.47
2022-11-24T03:30:29.026Z,8.49
2022-11-24T03:34:30.815Z,8.47
2022-11-24T03:38:32.701Z,8.42
2022-11-24T03:42:34.523Z,8.45
2022-11-24T03:46:39.103Z,8.42
2022-11-24T03:50:40.856Z,8.40
2022-11-24T03:54:42.664Z,8.37
2022-11-24T03:58:44.242Z,8.40
2022-11-24T04:02:45.989Z,8.47
2022-11-24T04:06:47.611Z,8.56
2022-11-24T04:10:51.218Z,8.65
2022-11-24T04:14:52.834Z,8.72
2022-11-24T04:18:54.433Z,8.79
2022-11-24T04:22:56.008Z,8.85
2022-11-24T04:26:57.805Z,8.96
2022-11-24T04:31:03.279Z,9.00
2022-11-24T04:35:05.211Z,9.06
2022-11-24T04:39:25.983Z,9.12
2022-11-24T04:43:28.693Z,9.15
2022-11-24T04:47:30.319Z,9.23
2022-11-24T04:51:31.944Z,9.26
2022-11-24T04:55:33.492Z,9.29
2022-11-24T04:59:35.062Z,9.30
2022-11-24T05:03:36.819Z,9.30
2022-11-24T05:07:38.547Z,9.35
2022-11-24T05:11:40.145Z,9.34
2022-11-24T05:15:42.887Z,9.38
2022-11-24T05:19:44.509Z,9.38
2022-11-24T05:23:46.044Z,9.35
2022-11-24T05:27:47.726Z,9.39
2022-11-24T05:31:49.334Z,9.38
2022-11-24T05:35:51.341Z,9.41
2022-11-24T05:39:54.682Z,9.42
2022-11-24T05:43:56.276Z,9.43
2022-11-24T05:48:04.554Z,9.39
2022-11-24T05:52:06.124Z,9.43
2022-11-24T05:56:08.021Z,9.44
2022-11-24T06:00:10.972Z,9.45
2022-11-24T06:04:15.790Z,9.42
2022-11-24T06:08:17.428Z,9.42
2022-11-24T06:12:19.077Z,9.42
2022-11-24T06:16:20.801Z,9.49
2022-11-24T06:20:28.358Z,9.52
2022-11-24T06:24:33.182Z,9.56
2022-11-24T06:28:35.750Z,9.58
2022-11-24T06:32:37.351Z,9.59
2022-11-24T06:36:39.480Z,9.58
2022-11-24T06:40:41.093Z,9.56
2022-11-24T06:44:42.730Z,9.52
2022-11-24T06:48:44.453Z,9.49
2022-11-24T06:52:46.271Z,9.47
2022-11-24T06:56:49.971Z,9.47
2022-11-24T07:00:54.446Z,9.45
2022-11-24T07:04:56.093Z,9.44
2022-11-24T07:08:57.817Z,9.40
2022-11-24T07:12:59.409Z,9.40
2022-11-24T07:17:02.709Z,9.43
2022-11-24T07:21:05.493Z,9.44
2022-11-24T07:25:09.774Z,9.42
2022-11-24T07:29:11.774Z,9.45
2022-11-24T07:33:13.691Z,9.45
2022-11-24T07:37:15.293Z,9.47
2022-11-24T07:41:19.661Z,9.49
2022-11-24T07:45:21.465Z,9.47
2022-11-24T07:49:23.400Z,9.48
2022-11-24T07:53:25.178Z,9.53
2022-11-24T07:57:29.127Z,9.58
2022-11-24T08:01:30.824Z,9.67
2022-11-24T08:05:32.597Z,9.68
2022-11-24T08:09:34.191Z,9.68
2022-11-24T08:13:36.638Z,9.66
2022-11-24T08:17:38.183Z,9.64
2022-11-24T08:21:40.283Z,9.61
2022-11-24T08:25:41.958Z,9.63
2022-11-24T08:29:43.762Z,9.70
2022-11-24T08:33:46.064Z,9.74
2022-11-24T08:37:47.797Z,9.75
2022-11-24T08:41:49.914Z,9.92
2022-11-24T08:45:52.371Z,10.12
2022-11-24T08:49:53.986Z,10.18
2022-11-24T08:53:57.167Z,10.24
2022-11-24T08:57:58.827Z,10.35
2022-11-24T09:02:01.030Z,10.42
2022-11-24T09:06:02.680Z,10.46
2022-11-24T09:10:04.637Z,10.51
2022-11-24T09:14:06.238Z,10.54
2022-11-24T09:18:07.896Z,10.53
2022-11-24T09:22:09.456Z,10.55
2022-11-24T09:26:18.795Z,10.64
2022-11-24T09:30:20.655Z,10.72
2022-11-24T09:34:22.468Z,10.83
2022-11-24T09:38:25.022Z,10.88
2022-11-24T09:42:48.066Z,10.87
2022-11-24T09:47:33.932Z,10.83
2022-11-24T09:51:38.555Z,10.82
2022-11-24T09:55:43.185Z,10.95
2022-11-24T09:59:44.858Z,11.02
2022-11-24T10:03:50.927Z,10.98
2022-11-24T10:08:04.072Z,10.95
2022-11-24T10:12:12.194Z,11.08
2022-11-24T10:16:14.692Z,11.15
2022-11-24T10:20:24.481Z,11.23
2022-11-24T10:24:46.116Z,11.38
2022-11-24T10:28:55.394Z,11.62
2022-11-24T10:33:20.767Z,11.73
2022-11-24T10:37:33.904Z,11.71
2022-11-24T10:41:59.871Z,11.75
2022-11-24T10:46:16.552Z,11.80
2022-11-24T10:50:36.793Z,11.88
2022-11-24T10:54:54.207Z,11.88
2022-11-24T10:58:55.732Z,11.85
2022-11-24T11:03:23.878Z,11.73
2022-11-24T11:07:26.791Z,11.80
2022-11-24T11:11:29.575Z,11.84
2022-11-24T11:15:31.716Z,11.84
2022-11-24T11:20:00.261Z,11.78
2022-11-24T11:24:03.750Z,11.76
2022-11-24T11:28:23.293Z,11.74
2022-11-24T11:36:51.583Z,11.79
2022-11-24T11:40:53.540Z,11.81
2022-11-24T11:45:03.926Z,11.84
2022-11-24T11:49:05.594Z,11.84
2022-11-24T11:53:37.071Z,11.86
2022-11-24T11:57:55.680Z,11.88
2022-11-24T12:02:00.625Z,12.10
2022-11-24T12:06:38.409Z,12.44
2022-11-24T12:10:49.123Z,12.56
2022-11-24T12:15:15.402Z,12.52
2022-11-24T12:19:45.616Z,12.48
2022-11-24T12:24:02.265Z,12.42
2022-11-24T12:28:21.115Z,12.36
2022-11-24T12:32:47.630Z,12.23
2022-11-24T12:37:28.085Z,12.28
2022-11-24T12:41:47.644Z,12.84
2022-11-24T12:46:04.538Z,13.20
2022-11-24T12:50:09.491Z,13.45
2022-11-24T12:54:14.544Z,13.42
2022-11-24T12:58:41.507Z,13.25
2022-11-24T13:03:19.877Z,13.08
2022-11-24T13:07:43.716Z,12.91
2022-11-24T13:12:05.471Z,12.73
2022-11-24T13:16:35.048Z,12.60
2022-11-24T13:20:40.199Z,12.50
2022-11-24T13:24:42.862Z,12.45
2022-11-24T13:29:18.220Z,12.39
2022-11-24T13:33:32.371Z,12.40
2022-11-24T13:37:36.072Z,12.63
2022-11-24T13:41:40.360Z,12.83
2022-11-24T13:45:42.865Z,12.88
2022-11-24T13:49:46.654Z,12.83
2022-11-24T13:53:50.314Z,12.71
2022-11-24T13:57:56.589Z,12.60
2022-11-24T14:01:58.632Z,12.63
2022-11-24T14:06:01.964Z,12.65
2022-11-24T14:10:03.913Z,12.52
2022-11-24T14:14:20.992Z,12.48
2022-11-24T14:18:23.094Z,12.49
2022-11-24T14:22:36.786Z,12.51
2022-11-24T14:26:41.759Z,12.39
2022-11-24T14:30:43.475Z,12.26
2022-11-24T14:34:45.040Z,12.10
2022-11-24T14:38:48.293Z,11.94
2022-11-24T14:42:51.504Z,11.80
2022-11-24T14:47:05.237Z,11.71
2022-11-24T14:51:07.204Z,11.58
2022-11-24T14:55:26.946Z,11.46
2022-11-24T14:59:32.861Z,11.37
2022-11-24T15:03:34.507Z,11.25
2022-11-24T15:07:37.711Z,11.12
2022-11-24T15:11:39.361Z,11.01
2022-11-24T15:15:50.919Z,10.87
2022-11-24T15:20:02.914Z,10.72
2022-11-24T15:24:17.018Z,10.57
2022-11-24T15:28:19.649Z,10.45
2022-11-24T15:32:21.940Z,10.31
2022-11-24T15:36:23.507Z,10.22
2022-11-24T15:40:25.139Z,10.12
2022-11-24T15:44:26.899Z,10.03
2022-11-24T15:48:29.567Z,9.92
2022-11-24T15:52:31.207Z,9.79
2022-11-24T15:56:36.833Z,9.70
2022-11-24T16:00:38.478Z,9.57
2022-11-24T16:04:41.700Z,9.49
2022-11-24T16:08:43.280Z,9.39
2022-11-24T16:12:44.894Z,9.35
2022-11-24T16:16:46.589Z,9.39
2022-11-24T16:20:48.382Z,9.42
2022-11-24T16:24:50.215Z,9.43
2022-11-24T16:28:51.901Z,9.39
2022-11-24T16:32:53.550Z,9.28
2022-11-24T16:36:55.238Z,9.18
2022-11-24T16:40:57.035Z,9.06
2022-11-24T16:44:58.557Z,8.96
2022-11-24T16:49:01.213Z,8.87
2022-11-24T16:53:02.814Z,8.77
2022-11-24T16:57:04.685Z,8.69
2022-11-24T17:01:08.632Z,8.62
2022-11-24T17:05:10.212Z,8.57
2022-11-24T17:09:11.884Z,8.54
2022-11-24T17:13:14.224Z,8.51
2022-11-24T17:17:15.805Z,8.46
2022-11-24T17:21:22.503Z,8.40
2022-11-24T17:25:24.041Z,8.33
2022-11-24T17:29:25.921Z,8.24
2022-11-24T17:33:28.290Z,8.19
2022-11-24T17:37:32.190Z,8.14
2022-11-24T17:41:34.190Z,8.09
2022-11-24T17:45:35.822Z,8.03
2022-11-24T17:49:37.770Z,8.01
2022-11-24T17:53:41.418Z,8.00
2022-11-24T17:57:43.037Z,7.98
2022-11-24T18:01:44.672Z,7.96
2022-11-24T18:05:46.410Z,7.91
2022-11-24T18:09:48.090Z,7.89
2022-11-24T18:13:58.407Z,7.87
2022-11-24T18:18:02.803Z,7.88
2022-11-24T18:22:04.531Z,7.87
2022-11-24T18:26:06.641Z,7.89
2022-11-24T18:30:08.771Z,7.91
2022-11-24T18:34:24.819Z,7.92
2022-11-24T18:38:28.243Z,7.94
2022-11-24T18:42:31.088Z,7.97
2022-11-24T18:46:38.385Z,7.96
2022-11-24T18:50:40.246Z,7.96
2022-11-24T18:54:42.022Z,7.96
2022-11-24T18:58:44.108Z,7.97
2022-11-24T19:02:51.140Z,7.98
2022-11-24T19:06:52.883Z,8.01
2022-11-24T19:10:54.557Z,7.99
2022-11-24T19:14:56.278Z,7.95
2022-11-24T19:19:00.165Z,7.91
2022-11-24T19:23:01.986Z,7.87
2022-11-24T19:27:03.668Z,7.85
2022-11-24T19:31:08.246Z,7.83
2022-11-24T19:35:09.900Z,7.81
2022-11-24T19:39:17.154Z,7.76
2022-11-24T19:43:18.754Z,7.75
2022-11-24T21:32:08.078Z,7.30
2022-11-24T21:36:09.740Z,7.26
2022-11-24T21:40:12.480Z,7.23
2022-11-24T21:44:14.845Z,7.20
2022-11-24T21:48:16.390Z,7.16
2022-11-24T21:52:18.032Z,7.12
2022-11-24T21:56:22.050Z,7.06
2022-11-24T22:00:23.980Z,7.01
2022-11-24T22:04:25.682Z,6.96
2022-11-24T22:08:29.264Z,6.93
2022-11-24T22:12:30.835Z,6.87
2022-11-24T22:16:32.461Z,6.81
2022-11-24T22:20:34.071Z,6.76
2022-11-24T22:24:35.654Z,6.71
2022-11-24T22:28:37.319Z,6.70
2022-11-24T22:32:38.907Z,6.68
2022-11-24T22:36:40.561Z,6.67
2022-11-24T22:40:42.130Z,6.67
2022-11-24T22:44:43.721Z,6.74
2022-11-24T22:48:46.945Z,6.78
2022-11-24T22:52:50.067Z,6.79
2022-11-24T22:56:51.967Z,6.79
2022-11-24T23:00:53.527Z,6.80
2022-11-24T23:04:55.100Z,6.78
2022-11-24T23:09:00.713Z,6.76
2022-11-24T23:13:04.089Z,6.76
2022-11-24T23:17:05.750Z,6.76
2022-11-24T23:21:14.289Z,6.77
2022-11-24T23:25:15.941Z,6.78
2022-11-24T23:29:17.507Z,6.77
2022-11-24T23:33:19.074Z,6.77
2022-11-24T23:37:23.857Z,6.77
2022-11-24T23:41:32.127Z,6.75
2022-11-24T23:45:33.848Z,6.73
2022-11-24T23:49:35.475Z,6.70
2022-11-24T23:53:37.018Z,6.71
2022-11-24T23:57:38.748Z,6.70
